Time;durP1;ratioP1;P1;durP2;ratioP2;P2;SDS_P1;SDS_P2;PMS_P1;PMS_P2;Temp;Humidity;BMP_temperature;BMP_pressure;BME280_temperature;BME280_humidity;BME280_pressure;Samples;Min_cycle;Max_cycle;Signal;HPM_P1;HPM_P2
2021/12/27 00:01:12;;;;;;;11.52;6.00;;;-6.10;69.40;;;-6.04;94.38;99157.06;4984838;28;131038;-80
2021/12/27 00:03:42;;;;;;;16.13;6.35;;;-6.00;70.10;;;-5.99;94.69;99161.72;4986617;28;130440;-80
2021/12/27 00:06:11;;;;;;;13.23;5.70;;;-5.80;71.60;;;-5.82;94.24;99154.88;4986764;28;118714;-79
2021/12/27 00:08:43;;;;;;;14.02;7.28;;;-5.70;71.70;;;-5.70;94.72;99159.47;4989594;28;115049;-82
2021/12/27 00:11:14;;;;;;;15.95;8.13;;;-5.60;73.80;;;-5.67;95.47;99161.69;5018513;28;129884;-82
2021/12/27 00:13:43;;;;;;;14.10;7.65;;;-5.50;74.50;;;-5.43;94.89;99160.09;4971691;28;129303;-81
2021/12/27 00:16:12;;;;;;;14.43;7.30;;;-5.40;75.30;;;-5.48;95.21;99163.41;4988479;28;118253;-80
2021/12/27 00:18:42;;;;;;;17.75;7.88;;;-5.50;76.10;;;-5.31;94.99;99168.16;4988729;28;115140;-81
2021/12/27 00:21:11;;;;;;;15.25;8.60;;;-5.40;76.90;;;-5.30;95.03;99169.75;5018446;28;129747;-81
2021/12/27 00:23:40;;;;;;;13.93;7.22;;;-5.40;77.40;;;-5.22;94.74;99160.75;5000020;28;129899;-81
2021/12/27 00:26:10;;;;;;;15.80;7.43;;;-5.40;79.00;;;-5.29;95.48;99158.16;5006315;28;119095;-82
2021/12/27 00:28:39;;;;;;;17.25;8.13;;;-5.40;79.80;;;-5.36;96.38;99162.69;5025281;28;114401;-82
2021/12/27 00:31:16;;;;;;;16.55;8.07;;;-5.30;81.70;;;-5.39;97.33;99158.66;5007869;28;128712;-82
2021/12/27 00:33:46;;;;;;;15.35;7.47;;;-5.30;84.80;;;-5.33;97.95;99165.72;5006015;28;129720;-81
2021/12/27 00:36:14;;;;;;;19.90;9.02;;;-5.20;88.00;;;-5.32;98.06;99166.53;5021525;28;118888;-80
2021/12/27 00:38:43;;;;;;;19.88;8.77;;;-5.10;88.50;;;-5.16;98.21;99158.03;5007967;28;114411;-81
2021/12/27 00:41:14;;;;;;;20.92;8.63;;;-5.10;87.60;;;-5.21;98.17;99167.66;5003877;28;129989;-82
2021/12/27 00:43:43;;;;;;;17.95;8.65;;;-5.00;90.10;;;-5.09;97.67;99166.75;5006267;28;129306;-82
2021/12/27 00:46:12;;;;;;;22.80;9.35;;;-5.00;89.20;;;-5.02;97.73;99160.56;5004879;28;118690;-81
2021/12/27 00:48:41;;;;;;;19.58;9.35;;;-5.00;90.00;;;-5.02;97.37;99171.16;5004898;28;114342;-81
2021/12/27 00:51:10;;;;;;;20.83;8.77;;;-5.10;89.40;;;-5.27;98.15;99170.16;5005313;28;130228;-80
2021/12/27 00:53:39;;;;;;;19.23;7.88;;;-5.10;91.20;;;-5.10;98.84;99164.31;5005831;28;130536;-81
2021/12/27 00:56:08;;;;;;;16.17;8.82;;;-5.00;91.40;;;-5.10;98.70;99164.31;5006048;28;118838;-81
2021/12/27 00:58:37;;;;;;;19.23;8.70;;;-5.00;91.80;;;-5.03;98.36;99154.50;5008155;28;113736;-80
2021/12/27 01:01:06;;;;;;;14.88;8.65;;;-5.00;91.60;;;-4.98;98.34;99157.28;4990455;28;130253;-81
2021/12/27 01:03:35;;;;;;;16.75;8.70;;;-5.00;91.60;;;-4.99;97.76;99163.59;4988736;28;129164;-81
2021/12/27 01:06:03;;;;;;;20.33;9.07;;;-5.00;92.00;;;-5.02;98.24;99160.56;5005065;28;118442;-81
2021/12/27 01:08:35;;;;;;;16.98;9.45;;;-4.90;92.70;;;-5.03;98.74;99170.38;4987593;28;115059;-77
2021/12/27 01:11:24;;;;;;;19.02;9.32;;;-4.90;93.70;;;-5.10;100.00;99165.09;5004057;28;129699;-80
2021/12/27 01:14:09;;;;;;;17.80;9.75;;;-4.80;94.30;;;-5.13;100.00;99160.25;5016982;28;130361;-79
2021/12/27 01:16:39;;;;;;;18.83;9.18;;;-4.80;94.90;;;-5.11;100.00;99163.50;4986519;28;117595;-80
2021/12/27 01:19:08;;;;;;;22.30;9.68;;;-4.80;95.30;;;-5.10;100.00;99165.09;5005454;28;114261;-80
2021/12/27 01:21:36;;;;;;;27.63;11.77;;;-4.80;95.30;;;-5.13;100.00;99170.84;5001451;28;130582;-79
2021/12/27 01:24:07;;;;;;;18.52;9.95;;;-4.70;97.00;;;-5.07;100.00;99167.31;5002846;28;129450;-79
2021/12/27 01:26:36;;;;;;;22.20;10.63;;;-4.70;96.70;;;-5.10;100.00;99175.69;5007303;28;118015;-81
2021/12/27 01:29:07;;;;;;;19.08;10.52;;;-4.60;96.60;;;-5.02;100.00;99181.75;5003988;28;115702;-80
2021/12/27 01:31:36;;;;;;;19.67;9.27;;;-4.60;96.30;;;-4.94;100.00;99176.16;5006243;28;129839;-81
2021/12/27 01:34:05;;;;;;;17.88;9.43;;;-4.60;95.90;;;-4.97;100.00;99179.25;5004687;28;129679;-78
2021/12/27 01:36:34;;;;;;;26.92;11.25;;;-4.60;96.20;;;-5.02;100.00;99171.16;5003696;28;118714;-78
2021/12/27 01:39:04;;;;;;;23.45;11.07;;;-4.60;96.40;;;-4.98;100.00;99185.59;5005021;28;116076;-78
2021/12/27 01:41:35;;;;;;;20.58;10.00;;;-4.60;96.90;;;-4.88;100.00;99185.91;5005969;28;129836;-80
2021/12/27 01:44:04;;;;;;;19.55;9.85;;;-4.50;96.80;;;-4.84;100.00;99176.50;5006308;28;128849;-80
2021/12/27 01:46:33;;;;;;;21.55;10.52;;;-4.40;96.50;;;-4.84;100.00;99184.44;5003799;28;118447;-79
2021/12/27 01:49:01;;;;;;;25.45;10.50;;;-4.40;95.70;;;-4.83;100.00;99185.25;5007050;28;115456;-78
2021/12/27 01:51:32;;;;;;;20.77;9.93;;;-4.40;94.90;;;-4.74;100.00;99186.56;5002924;28;129948;-82
2021/12/27 01:54:01;;;;;;;22.73;10.45;;;-4.30;94.60;;;-4.76;100.00;99181.50;5004612;28;130139;-82
2021/12/27 01:56:30;;;;;;;21.98;10.18;;;-4.30;94.20;;;-4.77;100.00;99190.50;4990351;28;118205;-82
2021/12/27 01:59:01;;;;;;;19.83;9.55;;;-4.30;93.00;;;-4.82;100.00;99192.97;4990411;28;115062;-83
2021/12/27 02:01:30;;;;;;;23.00;9.88;;;-4.30;92.30;;;-4.76;100.00;99192.09;5006368;28;128953;-79
2021/12/27 02:03:59;;;;;;;21.05;10.15;;;-4.20;91.50;;;-4.79;100.00;99197.81;5003741;28;129839;-79
2021/12/27 02:06:29;;;;;;;19.60;9.52;;;-4.30;90.50;;;-4.78;100.00;99194.16;5003175;28;118919;-80
2021/12/27 02:08:57;;;;;;;18.52;9.30;;;-4.30;89.90;;;-4.77;100.00;99195.78;4987381;28;114479;-78
2021/12/27 02:11:26;;;;;;;19.45;9.23;;;-4.30;89.60;;;-4.84;100.00;99195.03;5019904;28;129866;-78
2021/12/27 02:13:54;;;;;;;22.00;10.65;;;-4.40;89.20;;;-4.89;100.00;99190.38;5004393;28;129451;-78
2021/12/27 02:16:25;;;;;;;19.45;10.40;;;-4.40;89.00;;;-4.88;100.00;99193.84;5006754;28;118481;-78
2021/12/27 02:18:54;;;;;;;24.75;11.00;;;-4.40;89.30;;;-4.84;100.00;99205.63;5004726;28;115824;-78
2021/12/27 02:21:25;;;;;;;20.88;9.45;;;-4.50;89.40;;;-4.87;100.00;99200.75;5004523;28;130109;-78
2021/12/27 02:23:56;;;;;;;19.50;9.63;;;-4.50;89.90;;;-4.97;100.00;99198.63;5004812;28;130400;-78
2021/12/27 02:26:25;;;;;;;20.20;10.18;;;-4.50;90.60;;;-4.84;100.00;99202.97;5024298;28;118130;-81
2021/12/27 02:28:54;;;;;;;20.00;10.25;;;-4.50;90.50;;;-4.84;100.00;99199.53;4990672;28;115225;-81
2021/12/27 02:31:23;;;;;;;25.33;10.45;;;-4.40;90.70;;;-4.77;100.00;99201.09;4992824;28;129546;-82
2021/12/27 02:33:51;;;;;;;25.88;11.48;;;-4.40;90.30;;;-4.76;100.00;99207.19;5009424;28;129042;-82
2021/12/27 02:36:24;;;;;;;19.17;9.95;;;-4.40;90.30;;;-4.77;100.00;99205.53;5026347;28;118087;-82
2021/12/27 02:38:54;;;;;;;20.60;10.77;;;-4.40;90.40;;;-4.74;100.00;99205.91;5010268;28;114656;-82
2021/12/27 02:41:22;;;;;;;22.45;10.30;;;-4.40;90.30;;;-4.79;100.00;99211.06;5007590;28;129730;-81
2021/12/27 02:43:51;;;;;;;21.80;10.68;;;-4.40;89.10;;;-4.73;100.00;99209.38;5007382;28;129638;-81
2021/12/27 02:46:20;;;;;;;24.60;11.70;;;-4.30;88.10;;;-4.73;100.00;99215.47;5007555;28;119454;-78
2021/12/27 02:48:49;;;;;;;22.65;10.65;;;-4.30;87.20;;;-4.73;100.00;99218.13;5009853;28;114971;-78
2021/12/27 02:51:20;;;;;;;24.70;11.15;;;-4.30;86.70;;;-4.68;100.00;99224.63;4992479;28;128787;-78
2021/12/27 02:53:50;;;;;;;23.60;11.30;;;-4.30;86.40;;;-4.63;100.00;99219.47;4992475;28;129368;-79
2021/12/27 02:56:21;;;;;;;19.92;10.13;;;-4.30;86.60;;;-4.61;100.00;99220.06;5007535;28;118775;-78
2021/12/27 02:58:51;;;;;;;22.10;10.88;;;-4.30;86.20;;;-4.54;99.29;99226.09;5009442;28;115628;-79
2021/12/27 03:01:23;;;;;;;24.38;10.52;;;-4.30;86.40;;;-4.59;99.33;99228.63;4992594;28;129407;-79
2021/12/27 03:03:53;;;;;;;22.33;10.88;;;-4.20;86.00;;;-4.59;99.37;99228.63;5007090;28;129537;-78
2021/12/27 03:06:22;;;;;;;19.63;9.73;;;-4.30;85.70;;;-4.64;100.00;99231.09;5007630;28;118691;-81
2021/12/27 03:08:51;;;;;;;20.13;9.90;;;-4.20;84.70;;;-4.56;99.95;99233.47;5009384;28;114916;-81
2021/12/27 03:11:22;;;;;;;22.67;11.10;;;-4.20;83.60;;;-4.55;99.79;99235.91;5025805;28;129600;-81
2021/12/27 03:13:52;;;;;;;20.90;10.63;;;-4.20;83.30;;;-4.52;99.43;99238.13;5008893;28;129895;-81
2021/12/27 03:16:24;;;;;;;19.48;9.85;;;-4.20;82.70;;;-4.52;99.72;99235.47;5009343;28;118138;-80
2021/12/27 03:18:55;;;;;;;18.90;9.90;;;-4.20;81.80;;;-4.42;98.93;99237.59;5008025;28;115006;-79
2021/12/27 03:21:25;;;;;;;20.75;10.43;;;-4.20;81.60;;;-4.51;99.09;99241.56;5009241;28;128928;-79
2021/12/27 03:23:54;;;;;;;21.30;11.63;;;-4.20;81.60;;;-4.41;98.79;99236.59;5008291;28;129334;-78
2021/12/27 03:26:24;;;;;;;21.85;10.80;;;-4.20;82.10;;;-4.42;98.20;99240.25;4987798;28;119046;-78
2021/12/27 03:28:53;;;;;;;23.98;12.00;;;-4.20;83.00;;;-4.44;98.76;99231.72;5006923;28;114802;-78
2021/12/27 03:31:21;;;;;;;22.75;10.55;;;-4.20;82.90;;;-4.45;98.26;99240.69;5008570;28;129458;-78
2021/12/27 03:33:50;;;;;;;20.95;11.25;;;-4.20;82.50;;;-4.48;98.93;99235.81;5006744;28;129901;-78
2021/12/27 03:36:23;;;;;;;28.05;11.93;;;-4.20;81.70;;;-4.41;98.59;99241.88;5007020;28;118599;-78
2021/12/27 03:38:52;;;;;;;24.65;11.10;;;-4.20;81.60;;;-4.50;99.03;99253.78;5009002;28;115171;-77
2021/12/27 03:41:25;;;;;;;25.00;11.10;;;-4.20;81.20;;;-4.46;99.13;99257.59;5008035;28;130922;-77
2021/12/27 03:43:53;;;;;;;26.63;10.68;;;-4.10;81.10;;;-4.47;98.66;99253.34;5008077;28;130778;-77
2021/12/27 03:46:22;;;;;;;24.02;11.10;;;-4.10;81.00;;;-4.46;98.85;99254.94;5006663;28;118511;-77
2021/12/27 03:48:51;;;;;;;26.90;12.43;;;-4.20;80.30;;;-4.64;98.90;99249.63;5006749;28;115757;-77
2021/12/27 03:51:19;;;;;;;27.77;12.65;;;-4.20;79.20;;;-4.61;99.29;99243.88;5006066;28;130118;-77
2021/12/27 03:53:48;;;;;;;25.80;11.93;;;-4.30;79.20;;;-4.76;99.35;99260.13;5008021;28;128865;-77
2021/12/27 03:56:17;;;;;;;24.35;12.10;;;-4.40;79.80;;;-4.85;99.15;99251.63;4991748;28;118048;-77
2021/12/27 03:58:54;;;;;;;28.20;13.15;;;-4.50;81.00;;;-4.88;99.53;99254.72;5009531;28;116767;-77
2021/12/27 04:01:24;;;;;;;;;;;-4.50;82.70;;;-5.01;100.00;99252.19;5006496;28;129941;-77
2021/12/27 04:03:55;;;;;;;27.52;11.18;;;-4.50;83.80;;;-4.99;99.93;99253.59;5008261;28;129447;-78
2021/12/27 04:06:27;;;;;;;26.75;11.15;;;-4.60;84.10;;;-4.99;100.00;99255.44;5007970;28;118901;-78
2021/12/27 04:08:57;;;;;;;26.00;10.82;;;-4.60;84.50;;;-5.00;99.80;99254.63;4983844;28;116367;-78
2021/12/27 04:11:37;;;;;;;26.50;12.43;;;-4.70;84.60;;;-5.02;99.26;99248.72;4967638;28;128979;-79
2021/12/27 04:14:07;;;;;;;29.10;11.75;;;-4.80;85.40;;;-5.14;99.90;99250.44;4963452;28;130784;-78
2021/12/27 04:16:35;;;;;;;26.40;12.30;;;-4.90;86.60;;;-5.24;100.00;99254.38;4967514;28;117884;-77
2021/12/27 04:19:04;;;;;;;29.65;11.77;;;-5.00;88.00;;;-5.29;100.00;99264.00;4964699;28;115826;-78
2021/12/27 04:21:33;;;;;;;29.92;12.80;;;-5.00;90.30;;;-5.34;100.00;99261.97;4962712;28;130041;-77
2021/12/27 04:24:01;;;;;;;31.70;13.13;;;-5.00;92.40;;;-5.34;100.00;99263.81;4965546;28;129537;-76
2021/12/27 04:26:30;;;;;;;33.88;12.77;;;-5.00;91.50;;;-5.38;100.00;99258.13;4966060;28;118653;-75
2021/12/27 04:28:59;;;;;;;29.05;13.32;;;-5.00;91.70;;;-5.47;100.00;99262.88;4965481;28;115838;-76
2021/12/27 04:31:29;;;;;;;27.35;12.52;;;-5.00;93.10;;;-5.50;100.00;99260.66;4963409;28;129736;-78
2021/12/27 04:33:59;;;;;;;27.65;12.18;;;-5.00;92.80;;;-5.38;100.00;99268.72;4964288;28;129552;-78
2021/12/27 04:36:27;;;;;;;27.02;11.35;;;-5.00;93.30;;;-5.49;100.00;99259.63;4962303;28;117728;-77
2021/12/27 04:38:57;;;;;;;31.33;12.13;;;-5.00;92.60;;;-5.43;100.00;99272.00;4961318;28;115640;-79
2021/12/27 04:41:25;;;;;;;26.58;11.95;;;-5.00;92.40;;;-5.34;100.00;99274.41;4960336;28;129617;-78
2021/12/27 04:43:54;;;;;;;28.65;10.52;;;-4.90;92.60;;;-5.30;100.00;99275.59;4967084;28;129448;-79
2021/12/27 04:46:23;;;;;;;25.90;11.60;;;-4.80;91.00;;;-5.30;99.70;99275.59;4965932;28;118802;-78
2021/12/27 04:48:53;;;;;;;22.33;10.48;;;-4.70;85.90;;;-5.33;100.00;99281.31;4966004;28;115741;-78
2021/12/27 04:51:22;;;;;;;27.52;11.70;;;-4.70;79.40;;;-5.19;99.69;99282.03;4950535;28;129548;-79
2021/12/27 04:53:52;;;;;;;26.33;12.25;;;-4.70;79.10;;;-5.09;98.59;99277.09;4964813;28;129890;-78
2021/12/27 04:56:21;;;;;;;28.25;12.18;;;-4.70;77.50;;;-5.09;98.41;99283.19;4965016;28;119113;-79
2021/12/27 04:58:59;;;;;;;18.75;9.95;;;-4.70;75.40;;;-5.18;97.90;99295.03;4949284;28;116076;-78
2021/12/27 05:01:28;;;;;;;25.67;10.85;;;-4.80;74.40;;;-5.21;98.12;99300.75;4965717;28;129645;-78
2021/12/27 05:03:58;;;;;;;27.90;12.30;;;-4.80;72.80;;;-5.07;97.34;99297.00;4965106;28;130473;-78
2021/12/27 05:06:27;;;;;;;29.55;10.30;;;-4.80;71.30;;;-5.14;96.84;99296.25;4966897;28;118839;-78
2021/12/27 05:08:55;;;;;;;24.77;10.18;;;-4.80;70.20;;;-5.11;96.56;99303.75;4966645;28;115644;-79
2021/12/27 05:11:24;;;;;;;25.02;11.32;;;-4.90;70.00;;;-5.12;96.81;99310.06;4983638;28;129487;-78
2021/12/27 05:13:53;;;;;;;28.25;11.63;;;-4.90;69.60;;;-5.13;97.07;99308.44;4983215;28;129251;-75
2021/12/27 05:16:22;;;;;;;27.05;11.15;;;-4.90;69.20;;;-5.08;96.77;99305.97;4983988;28;117955;-79
2021/12/27 05:18:51;;;;;;;26.75;11.30;;;-4.90;69.00;;;-5.02;95.95;99314.88;4967488;28;115060;-78
2021/12/27 05:21:21;;;;;;;21.58;10.73;;;-4.90;69.10;;;-4.94;96.00;99311.16;4966207;28;129708;-78
2021/12/27 05:23:49;;;;;;;30.90;15.45;;;-4.90;69.80;;;-4.93;95.39;99320.75;4963715;28;129847;-79
2021/12/27 05:26:17;;;;;;;28.73;12.43;;;-4.90;69.90;;;-4.87;95.05;99320.69;4966955;28;119163;-79
2021/12/27 05:28:46;;;;;;;30.48;13.07;;;-4.90;71.10;;;-4.79;95.41;99318.81;4965384;28;115436;-79
2021/12/27 05:31:15;;;;;;;31.63;12.38;;;-4.90;71.00;;;-4.70;94.90;99326.28;4964525;28;130527;-77
2021/12/27 05:33:53;;;;;;;28.00;13.35;;;-4.80;71.80;;;-4.66;94.87;99329.28;4962909;28;129851;-77
2021/12/27 05:36:23;;;;;;;36.40;12.85;;;-4.70;71.70;;;-4.61;94.51;99326.00;4983419;28;118336;-77
2021/12/27 05:38:52;;;;;;;28.25;12.32;;;-4.70;71.00;;;-4.68;94.84;99335.84;4965056;28;115743;-77
2021/12/27 05:41:20;;;;;;;31.05;13.48;;;-4.70;70.40;;;-4.57;93.98;99343.09;4964677;28;130090;-77
2021/12/27 05:43:49;;;;;;;41.63;15.70;;;-4.70;69.60;;;-4.51;94.17;99343.03;4965519;28;129514;-81
2021/12/27 05:46:18;;;;;;;31.05;11.88;;;-4.60;68.80;;;-4.60;94.54;99343.50;4967044;28;118484;-81
2021/12/27 05:48:47;;;;;;;41.25;12.75;;;-4.60;67.60;;;-4.55;93.58;99341.03;4983680;28;115093;-81
2021/12/27 05:51:15;;;;;;;31.48;12.30;;;-4.60;66.60;;;-4.51;93.67;99340.38;4966994;28;129885;-78
2021/12/27 05:53:46;;;;;;;32.83;13.15;;;-4.60;66.10;;;-4.46;93.21;99344.22;4977358;28;130951;-79
2021/12/27 05:56:15;;;;;;;26.23;12.18;;;-4.60;65.90;;;-4.54;93.40;99347.94;4964687;28;119407;-79
2021/12/27 05:58:44;;;;;;;40.80;13.57;;;-4.60;64.00;;;-4.59;93.36;99350.44;4979866;28;115433;-79
2021/12/27 06:01:12;;;;;;;35.60;13.55;;;-4.60;62.50;;;-4.77;93.82;99364.41;4982646;28;129061;-79
2021/12/27 06:03:41;;;;;;;32.80;12.15;;;-4.60;60.80;;;-4.82;94.42;99362.41;4982162;28;128572;-79
2021/12/27 06:06:11;;;;;;;32.33;12.30;;;-4.60;59.80;;;-4.93;93.87;99363.09;4964583;28;118788;-79
2021/12/27 06:08:39;;;;;;;33.30;13.07;;;-4.70;57.70;;;-5.11;94.32;99359.34;4966641;28;115752;-79
2021/12/27 06:11:09;;;;;;;33.60;12.32;;;-4.70;58.40;;;-5.10;94.35;99360.94;4965973;28;128702;-79
2021/12/27 06:13:38;;;;;;;27.90;12.52;;;-4.80;59.30;;;-5.12;94.93;99363.00;4964052;28;129307;-79
2021/12/27 06:16:08;;;;;;;37.60;13.32;;;-4.80;60.10;;;-4.98;95.18;99358.44;4965372;28;118305;-79
2021/12/27 06:18:37;;;;;;;30.73;11.20;;;-4.80;61.00;;;-4.90;94.00;99357.38;4963212;28;116287;-79
2021/12/27 06:21:06;;;;;;;31.52;15.60;;;-4.80;60.20;;;-5.14;95.29;99362.41;4964645;28;129200;-79
2021/12/27 06:23:34;;;;;;;36.80;12.18;;;-4.80;60.70;;;-5.18;95.10;99358.56;4978216;28;129687;-79
2021/12/27 06:26:03;;;;;;;33.38;12.30;;;-4.90;61.10;;;-5.07;94.95;99351.78;4963210;28;118758;-79
2021/12/27 06:28:34;;;;;;;29.80;11.73;;;-4.90;61.20;;;-5.18;95.66;99358.56;4962509;28;115754;-79
2021/12/27 06:31:04;;;;;;;31.52;13.07;;;-4.90;62.60;;;-5.07;94.79;99351.78;4961568;28;130430;-79
2021/12/27 06:33:33;;;;;;;37.42;13.20;;;-4.90;62.70;;;-5.10;94.88;99355.66;4961428;28;130042;-79
2021/12/27 06:36:02;;;;;;;30.17;12.70;;;-5.00;63.80;;;-5.16;95.32;99350.41;4978162;28;118830;-80
2021/12/27 06:38:30;;;;;;;33.92;13.23;;;-5.00;64.00;;;-5.25;95.46;99358.59;4963783;28;115675;-79
2021/12/27 06:41:00;;;;;;;29.60;10.85;;;-5.00;62.80;;;-5.34;95.63;99367.78;4962870;28;129621;-79
2021/12/27 06:43:30;;;;;;;27.65;11.80;;;-5.10;63.20;;;-5.25;95.25;99363.88;4963085;28;130295;-79
2021/12/27 06:46:01;;;;;;;33.65;13.32;;;-5.10;63.70;;;-5.43;95.31;99377.78;4980841;28;118887;-79
2021/12/27 06:48:30;;;;;;;36.45;14.57;;;-5.10;64.60;;;-5.29;96.35;99383.84;4964185;28;114722;-79
2021/12/27 06:50:59;;;;;;;27.90;13.07;;;-5.00;65.60;;;-5.21;95.54;99390.72;4980716;28;129244;-79
2021/12/27 06:53:30;;;;;;;29.00;11.45;;;-5.00;65.30;;;-5.29;95.86;99397.06;4961622;28;129578;-79
2021/12/27 06:56:02;;;;;;;27.63;12.02;;;-5.00;64.50;;;-5.16;95.44;99396.19;4962721;28;118703;-79
2021/12/27 06:58:30;;;;;;;36.88;15.35;;;-5.00;64.10;;;-5.06;94.22;99399.19;4964233;28;115781;-79
2021/12/27 07:01:00;;;;;;;36.63;12.80;;;-5.00;63.50;;;-4.86;93.88;99403.59;4979409;28;129450;-79
2021/12/27 07:03:29;;;;;;;33.05;13.10;;;-4.90;63.80;;;-4.67;93.62;99407.13;4978364;28;129116;-79
2021/12/27 07:05:57;;;;;;;28.50;11.55;;;-4.90;63.90;;;-4.71;92.38;99416.53;4962815;28;118913;-79
2021/12/27 07:08:26;;;;;;;31.17;13.07;;;-4.90;62.40;;;-4.79;92.93;99409.63;4963450;28;115777;-79
2021/12/27 07:10:55;;;;;;;28.38;12.70;;;-4.90;61.30;;;-4.83;92.62;99424.34;4961742;28;129800;-80
2021/12/27 07:13:24;;;;;;;32.45;12.88;;;-4.90;60.60;;;-4.80;93.36;99420.44;4962566;28;129436;-79
2021/12/27 07:15:53;;;;;;;32.70;13.60;;;-4.80;60.40;;;-4.62;92.27;99422.38;4980960;28;117976;-79
2021/12/27 07:18:23;;;;;;;33.28;13.18;;;-4.80;60.20;;;-4.61;92.32;99421.34;4966075;28;115960;-79
2021/12/27 07:20:54;;;;;;;32.35;10.77;;;-4.70;58.40;;;-4.62;92.14;99430.31;4964347;28;130042;-79
2021/12/27 07:23:23;;;;;;;33.35;12.23;;;-4.70;57.00;;;-4.71;91.77;99425.25;4982058;28;130074;-78
2021/12/27 07:25:52;;;;;;;28.83;11.45;;;-4.80;54.80;;;-4.53;91.46;99423.75;4982120;28;118271;-79
2021/12/27 07:28:20;;;;;;;27.05;12.50;;;-4.70;54.30;;;-4.59;91.26;99429.91;4982847;28;116064;-79
2021/12/27 07:30:49;;;;;;;23.90;11.20;;;-4.70;53.70;;;-4.45;91.27;99431.44;4965854;28;129066;-79
2021/12/27 07:33:18;;;;;;;28.25;12.25;;;-4.70;53.80;;;-4.38;91.00;99440.16;4964656;28;129856;-79
2021/12/27 07:35:48;;;;;;;27.05;11.18;;;-4.60;53.10;;;-4.34;90.68;99432.56;4966996;28;117821;-79
2021/12/27 07:38:17;;;;;;;31.42;12.93;;;-4.60;52.80;;;-4.28;90.73;99436.22;4964093;28;115831;-79
2021/12/27 07:40:46;;;;;;;30.13;11.73;;;-4.50;53.40;;;-4.22;90.67;99432.69;4965033;28;129738;-79
2021/12/27 07:43:14;;;;;;;32.22;13.13;;;-4.60;52.80;;;-4.14;90.03;99437.72;4965764;28;129670;-79
2021/12/27 07:45:43;;;;;;;33.85;13.05;;;-4.50;53.40;;;-3.91;89.72;99437.13;4982793;28;118183;-79
2021/12/27 07:48:12;;;;;;;26.67;12.23;;;-4.40;54.00;;;-3.89;89.38;99439.56;4983405;28;114793;-78
2021/12/27 07:50:41;;;;;;;26.25;11.18;;;-4.30;51.60;;;-3.87;88.01;99448.09;4966095;28;129039;-79
2021/12/27 07:53:10;;;;;;;25.65;11.23;;;-4.30;47.80;;;-3.86;88.88;99445.22;4966147;28;128647;-78
2021/12/27 07:55:39;;;;;;;28.85;11.60;;;-4.30;49.30;;;-3.69;87.57;99450.78;4963993;28;119001;-79
2021/12/27 07:58:08;;;;;;;30.20;11.13;;;-4.30;48.10;;;-3.41;87.12;99452.13;4966814;28;115963;-79
2021/12/27 08:00:37;;;;;;;28.50;11.68;;;-4.10;48.70;;;-3.40;87.14;99469.66;4967085;28;129292;-81
2021/12/27 08:03:06;;;;;;;25.33;11.55;;;-4.00;47.20;;;-3.45;87.15;99467.66;4966209;28;129631;-78
2021/12/27 08:05:35;;;;;;;22.48;10.77;;;-4.00;44.40;;;-3.37;86.79;99469.22;4964884;28;119038;-79
2021/12/27 08:08:04;;;;;;;24.55;11.18;;;-3.90;43.00;;;-3.47;86.43;99475.03;4967654;28;115936;-78
2021/12/27 08:10:43;;;;;;;24.75;10.63;;;-4.00;42.40;;;-3.48;86.17;99483.22;4965052;28;129811;-78
2021/12/27 08:13:12;;;;;;;23.17;10.50;;;-4.10;42.40;;;-3.63;86.35;99481.75;4967162;28;128979;-79
2021/12/27 08:15:41;;;;;;;23.80;11.10;;;-4.10;41.50;;;-3.40;86.65;99485.59;4950829;28;118270;-79
2021/12/27 08:18:09;;;;;;;22.50;10.77;;;-4.00;43.80;;;-3.35;87.24;99487.56;4964566;28;115819;-79
2021/12/27 08:20:38;;;;;;;23.55;10.93;;;-4.00;44.20;;;-3.52;87.05;99487.34;4964565;28;129550;-79
2021/12/27 08:23:07;;;;;;;23.58;11.43;;;-3.90;41.20;;;-3.47;87.06;99493.63;4977922;28;130237;-79
2021/12/27 08:25:35;;;;;;;22.25;9.82;;;-4.00;42.30;;;-3.48;87.09;99493.84;4964987;28;117753;-79
2021/12/27 08:28:06;;;;;;;24.30;10.60;;;-3.90;41.50;;;-3.29;86.02;99489.34;4963551;28;115001;-79
2021/12/27 08:30:35;;;;;;;27.50;11.95;;;-3.80;39.90;;;-3.16;84.98;99496.38;4964525;28;128926;-79
2021/12/27 08:33:04;;;;;;;26.27;11.07;;;-3.90;39.50;;;-3.07;85.17;99489.72;4962690;28;129511;-79
2021/12/27 08:35:35;;;;;;;24.48;10.20;;;-3.80;39.50;;;-3.31;84.60;99494.88;4965245;28;118463;-78
2021/12/27 08:38:04;;;;;;;26.17;11.15;;;-4.00;35.80;;;-3.35;84.97;99488.41;4981510;28;115907;-79
2021/12/27 08:40:33;;;;;;;27.05;10.68;;;-4.00;38.30;;;-3.55;86.06;99488.59;4964505;28;129469;-78
2021/12/27 08:43:02;;;;;;;26.75;12.77;;;-4.00;39.30;;;-3.65;86.40;99489.09;4964096;28;129575;-78
2021/12/27 08:45:32;;;;;;;22.42;12.85;;;-4.10;40.10;;;-3.76;86.65;99492.47;4964924;28;118656;-78
2021/12/27 08:48:02;;;;;;;22.50;11.73;;;-4.20;40.70;;;-3.86;87.16;99500.13;4982391;28;115215;-78
2021/12/27 08:50:31;;;;;;;26.38;11.13;;;-4.20;41.00;;;-3.87;87.17;99506.44;4983022;28;128462;-78
2021/12/27 08:52:59;;;;;;;26.42;12.23;;;-4.20;41.90;;;-3.73;86.86;99507.13;4966298;28;129932;-78
2021/12/27 08:55:29;;;;;;;27.13;13.07;;;-4.20;42.80;;;-3.75;86.71;99514.50;4966672;28;118261;-78
2021/12/27 08:57:57;;;;;;;27.40;11.88;;;-4.20;41.20;;;-3.47;85.90;99495.47;4961149;28;116174;-78
2021/12/27 09:00:35;;;;;;;28.23;12.23;;;-4.10;43.80;;;-3.62;85.20;99509.88;4964641;28;129556;-78
2021/12/27 09:03:04;;;;;;;28.42;12.38;;;-4.30;42.10;;;-3.65;85.11;99502.34;4950569;28;128861;-78
2021/12/27 09:05:33;;;;;;;22.80;12.55;;;-4.30;43.50;;;-3.51;85.94;99504.88;4965411;28;119264;-77
2021/12/27 09:08:01;;;;;;;24.83;12.40;;;-4.30;45.50;;;-3.40;85.95;99506.00;4966872;28;115391;-78
2021/12/27 09:10:29;;;;;;;25.17;13.25;;;-4.20;45.60;;;-3.37;85.66;99493.09;4966410;28;129637;-78
2021/12/27 09:12:58;;;;;;;27.25;13.45;;;-4.00;39.30;;;-3.23;84.83;99495.63;4982979;28;128689;-77
2021/12/27 09:15:27;;;;;;;28.73;14.15;;;-3.80;39.50;;;-2.79;83.30;99504.31;4968200;28;118830;-78
2021/12/27 09:17:57;;;;;;;26.58;12.70;;;-3.70;37.00;;;-2.51;82.03;99498.41;4963733;28;115922;-79
2021/12/27 09:20:28;;;;;;;28.15;13.02;;;-3.50;35.80;;;-2.63;81.96;99494.94;4963039;28;130600;-79
2021/12/27 09:22:56;;;;;;;27.27;14.00;;;-3.50;31.70;;;-2.96;82.64;99491.66;4962857;28;130116;-79
2021/12/27 09:25:25;;;;;;;26.88;14.20;;;-3.70;30.20;;;-3.00;83.12;99485.16;4964422;28;118456;-79
2021/12/27 09:27:54;;;;;;;25.20;13.00;;;-3.70;33.80;;;-2.78;82.42;99485.50;4962008;28;116002;-79
2021/12/27 09:30:22;;;;;;;26.95;12.95;;;-3.60;33.10;;;-2.67;81.68;99491.88;4962276;28;129732;-78
2021/12/27 09:32:51;;;;;;;25.15;12.23;;;-3.60;31.00;;;-2.56;82.17;99491.13;4981686;28;129794;-80
2021/12/27 09:35:21;;;;;;;25.33;12.50;;;-3.50;32.50;;;-2.27;80.77;99504.63;4965337;28;118780;-79
2021/12/27 09:37:50;;;;;;;28.20;12.55;;;-3.30;32.00;;;-2.03;80.17;99496.72;4964831;28;115550;-78
2021/12/27 09:40:19;;;;;;;23.23;11.65;;;-3.20;29.30;;;-2.53;80.46;99501.28;4966219;28;129408;-79
2021/12/27 09:42:48;;;;;;;27.30;12.77;;;-3.40;26.20;;;-2.19;80.01;99496.31;4964442;28;129639;-78
2021/12/27 09:45:16;;;;;;;26.75;12.48;;;-3.30;28.60;;;-2.14;78.70;99502.81;4950119;28;119054;-78
2021/12/27 09:47:47;;;;;;;24.17;11.77;;;-3.30;25.60;;;-2.41;80.10;99492.56;4967715;28;115540;-78
2021/12/27 09:50:23;;;;;;;21.70;12.05;;;-3.40;27.00;;;-2.39;79.39;99498.47;4965990;28;129249;-77
2021/12/27 09:52:54;;;;;;;26.27;12.82;;;-3.40;26.80;;;-1.95;79.43;99496.38;4966958;28;130219;-78
2021/12/27 09:55:23;;;;;;;25.80;12.65;;;-3.20;29.40;;;-1.61;77.55;99503.81;4966429;28;118243;-78
2021/12/27 09:57:52;;;;;;;25.35;12.55;;;-3.00;25.20;;;-1.79;77.06;99504.72;4963014;28;116123;-78
2021/12/27 10:00:23;;;;;;;31.15;15.07;;;-3.20;24.30;;;-1.93;77.91;99509.44;4965239;28;130515;-77
2021/12/27 10:02:56;;;;;;;28.10;12.95;;;-3.30;25.90;;;-1.60;77.61;99508.91;4965300;28;129942;-77
2021/12/27 10:05:32;;;;;;;31.70;13.80;;;-3.20;27.20;;;-1.48;76.30;99512.38;4965800;28;119818;-76
2021/12/27 10:08:02;;;;;;;27.48;13.27;;;-3.00;26.20;;;-1.84;76.73;99514.22;4965300;28;116226;-77
2021/12/27 10:10:33;;;;;;;26.08;13.07;;;-3.30;25.50;;;-2.20;77.74;99518.66;4982466;28;128765;-77